createdAt,value
2018-07-08T00:00:11.467Z,0
2018-07-08T00:00:51.877Z,0
2018-07-08T00:01:32.398Z,0
2018-07-08T00:02:12.686Z,0
2018-07-08T00:02:53.057Z,0
2018-07-08T00:03:33.453Z,0
2018-07-08T00:04:13.893Z,0
2018-07-08T00:04:54.271Z,0
2018-07-08T00:05:34.722Z,0
2018-07-08T00:06:15.130Z,0
2018-07-08T00:06:55.662Z,0
2018-07-08T00:07:36.049Z,0
2018-07-08T00:08:16.488Z,0
2018-07-08T00:08:57.031Z,0
2018-07-08T00:09:37.329Z,0
2018-07-08T00:10:17.752Z,0
2018-07-08T00:10:58.189Z,0
2018-07-08T00:11:38.629Z,0
2018-07-08T00:12:19.069Z,0
2018-07-08T00:12:59.480Z,0
2018-07-08T00:13:39.895Z,0
2018-07-08T00:14:20.265Z,0
2018-07-08T00:15:00.678Z,0
2018-07-08T00:15:41.186Z,0
2018-07-08T00:16:21.471Z,0
2018-07-08T00:17:01.937Z,0
2018-07-08T00:17:42.259Z,0
2018-07-08T00:18:22.670Z,0
2018-07-08T00:19:03.099Z,0
2018-07-08T00:19:43.516Z,0
2018-07-08T00:20:23.900Z,0
2018-07-08T00:21:04.709Z,0
2018-07-08T00:21:44.797Z,0
2018-07-08T00:22:25.220Z,0
2018-07-08T00:23:05.622Z,0
2018-07-08T00:23:46.005Z,0
2018-07-08T00:24:26.510Z,0
2018-07-08T00:25:06.877Z,0
2018-07-08T00:25:47.276Z,0
2018-07-08T00:26:27.762Z,0
2018-07-08T00:27:08.216Z,0
2018-07-08T00:27:48.492Z,0
2018-07-08T00:28:28.953Z,0
2018-07-08T00:29:09.456Z,0
2018-07-08T00:29:49.842Z,0
2018-07-08T00:30:30.101Z,0
2018-07-08T00:31:10.570Z,0
2018-07-08T00:31:51.043Z,0
2018-07-08T00:32:31.616Z,0
2018-07-08T00:33:11.934Z,0
2018-07-08T00:33:52.308Z,0
2018-07-08T00:34:32.783Z,0
2018-07-08T00:35:13.257Z,0
2018-07-08T00:35:53.499Z,0
2018-07-08T00:38:12.751Z,0
2018-07-08T00:38:52.861Z,0
2018-07-08T00:39:33.239Z,0
2018-07-08T00:40:13.651Z,0
2018-07-08T00:40:54.048Z,0
2018-07-08T00:41:34.491Z,0
2018-07-08T00:42:14.939Z,0
2018-07-08T00:42:55.385Z,0
2018-07-08T00:43:35.781Z,0
2018-07-08T00:44:16.235Z,0
2018-07-08T00:44:56.527Z,0
2018-07-08T00:45:37.052Z,0
2018-07-08T00:46:17.482Z,0
2018-07-08T00:46:57.825Z,0
2018-07-08T00:47:38.277Z,0
2018-07-08T00:48:18.676Z,0
2018-07-08T00:48:59.050Z,0
2018-07-08T00:49:39.418Z,0
2018-07-08T00:50:19.880Z,0
2018-07-08T00:51:00.274Z,0
2018-07-08T00:51:40.656Z,0
2018-07-08T00:52:21.246Z,0
2018-07-08T00:53:01.481Z,0
2018-07-08T00:53:41.905Z,0
2018-07-08T00:54:22.282Z,0
2018-07-08T00:55:02.744Z,0
2018-07-08T00:55:43.209Z,0
2018-07-08T00:56:23.614Z,0
2018-07-08T00:57:04.037Z,0
2018-07-08T00:57:44.425Z,0
2018-07-08T00:58:24.819Z,0
2018-07-08T00:59:05.248Z,0
2018-07-08T00:59:45.820Z,0
2018-07-08T01:00:26.225Z,0
2018-07-08T01:01:06.653Z,0
2018-07-08T01:01:47.080Z,0
2018-07-08T01:02:27.370Z,0
2018-07-08T01:03:07.794Z,0
2018-07-08T01:03:48.271Z,0
2018-07-08T01:04:28.625Z,0
2018-07-08T01:05:09.060Z,0
2018-07-08T01:05:49.430Z,0
2018-07-08T01:06:29.932Z,0
2018-07-08T01:07:10.295Z,0
2018-07-08T01:07:50.676Z,0
2018-07-08T01:08:31.097Z,0
2018-07-08T01:09:11.471Z,0
2018-07-08T01:09:51.874Z,0
2018-07-08T01:10:32.310Z,0
2018-07-08T01:11:12.687Z,0
2018-07-08T01:11:53.186Z,0
2018-07-08T01:12:33.562Z,0
2018-07-08T01:13:13.973Z,0
2018-07-08T01:13:54.364Z,0
2018-07-08T01:14:34.822Z,0
2018-07-08T01:15:17.995Z,0
2018-07-08T01:15:58.477Z,0
2018-07-08T01:16:38.765Z,0
2018-07-08T01:17:19.293Z,0
2018-07-08T01:17:59.629Z,0
2018-07-08T01:18:40.077Z,0
2018-07-08T01:19:20.503Z,0
2018-07-08T01:20:00.967Z,0
2018-07-08T01:20:41.337Z,0
2018-07-08T01:21:21.846Z,0
2018-07-08T01:22:02.264Z,0
2018-07-08T01:22:42.594Z,0
2018-07-08T01:23:23.061Z,0
2018-07-08T01:24:03.369Z,0
2018-07-08T01:24:43.804Z,0
2018-07-08T01:25:24.165Z,0
2018-07-08T01:26:04.581Z,0
2018-07-08T01:26:44.966Z,0
2018-07-08T01:27:25.383Z,0
2018-07-08T01:28:05.778Z,0
2018-07-08T01:28:46.294Z,0
2018-07-08T01:29:26.685Z,0
2018-07-08T01:30:07.004Z,0
2018-07-08T01:30:47.443Z,0
2018-07-08T01:31:27.880Z,0
2018-07-08T01:32:08.289Z,0
2018-07-08T01:32:48.753Z,0
2018-07-08T01:33:29.179Z,0
2018-07-08T01:34:09.556Z,0
2018-07-08T01:34:49.947Z,0
2018-07-08T01:35:30.376Z,0
2018-07-08T01:36:10.781Z,0
2018-07-08T01:36:51.163Z,0
2018-07-08T01:37:31.543Z,0
2018-07-08T01:38:12.012Z,0
2018-07-08T01:38:52.475Z,0
2018-07-08T01:39:33.040Z,0
2018-07-08T01:40:13.557Z,0
2018-07-08T01:40:53.942Z,0
2018-07-08T01:41:34.378Z,0
2018-07-08T01:42:14.858Z,0
2018-07-08T01:42:55.237Z,0
2018-07-08T01:43:35.655Z,0
2018-07-08T01:44:16.361Z,0
2018-07-08T01:44:56.550Z,0
2018-07-08T01:45:37.018Z,0
2018-07-08T01:46:17.486Z,0
2018-07-08T01:46:57.963Z,0
2018-07-08T01:47:38.284Z,0
2018-07-08T01:48:18.706Z,0
2018-07-08T01:48:59.151Z,0
2018-07-08T01:49:39.564Z,0
2018-07-08T01:50:19.974Z,0
2018-07-08T01:51:00.375Z,0
2018-07-08T01:51:40.748Z,0
2018-07-08T01:52:21.219Z,0
2018-07-08T01:53:01.636Z,0
2018-07-08T01:53:42.038Z,0
2018-07-08T01:54:22.452Z,0
2018-07-08T01:55:02.834Z,0
2018-07-08T01:55:43.365Z,0
2018-07-08T01:56:23.739Z,0
2018-07-08T01:57:04.085Z,0
2018-07-08T01:57:44.559Z,0
2018-07-08T01:58:24.913Z,0
2018-07-08T01:59:05.333Z,0
2018-07-08T01:59:45.747Z,0
2018-07-08T02:00:26.228Z,0
2018-07-08T02:01:06.514Z,0
2018-07-08T02:01:46.956Z,0
2018-07-08T02:02:27.369Z,0
2018-07-08T02:03:07.732Z,0
2018-07-08T02:03:48.284Z,0
2018-07-08T02:04:28.881Z,0
2018-07-08T02:05:09.191Z,0
2018-07-08T02:05:49.973Z,0
2018-07-08T02:06:30.047Z,0
2018-07-08T02:07:10.520Z,0
2018-07-08T02:07:50.983Z,0
2018-07-08T02:08:31.320Z,0
2018-07-08T02:09:11.709Z,0
2018-07-08T02:09:52.150Z,0
2018-07-08T02:10:32.543Z,0
2018-07-08T02:11:12.967Z,0
2018-07-08T02:11:53.411Z,0
2018-07-08T02:12:33.791Z,0
2018-07-08T02:13:14.183Z,0
2018-07-08T02:13:54.645Z,0
2018-07-08T02:14:34.997Z,0
2018-07-08T02:15:15.401Z,0
2018-07-08T02:15:55.899Z,0
2018-07-08T02:16:36.238Z,0
2018-07-08T02:17:16.699Z,0
2018-07-08T02:17:57.077Z,0
2018-07-08T02:18:37.518Z,0
2018-07-08T02:19:17.910Z,0
2018-07-08T02:19:58.371Z,0
2018-07-08T02:20:38.817Z,0
2018-07-08T02:21:19.256Z,0
2018-07-08T02:21:59.597Z,0
2018-07-08T02:22:40.035Z,0
2018-07-08T02:23:20.482Z,0
2018-07-08T02:24:00.871Z,0
2018-07-08T02:24:41.342Z,0
2018-07-08T02:25:21.775Z,0
2018-07-08T02:26:02.182Z,0
2018-07-08T02:26:42.573Z,0
2018-07-08T02:27:23.025Z,0
2018-07-08T02:28:03.513Z,0
2018-07-08T02:28:43.899Z,0
2018-07-08T02:29:24.319Z,0
2018-07-08T02:30:04.732Z,0
2018-07-08T02:30:45.082Z,0
2018-07-08T02:31:25.580Z,0
2018-07-08T02:32:05.935Z,0
2018-07-08T02:32:46.387Z,0
2018-07-08T02:33:26.793Z,0
2018-07-08T02:34:07.212Z,0
2018-07-08T02:34:47.631Z,0
2018-07-08T02:35:28.098Z,0
2018-07-08T02:36:08.474Z,0
2018-07-08T02:36:51.639Z,0
2018-07-08T02:37:32.044Z,0
2018-07-08T02:38:12.511Z,0
2018-07-08T02:38:52.889Z,0
2018-07-08T02:39:33.418Z,0
2018-07-08T02:40:13.738Z,0
2018-07-08T02:42:46.707Z,0
2018-07-08T02:43:27.039Z,0
2018-07-08T02:44:07.493Z,0
2018-07-08T02:44:47.998Z,0
2018-07-08T02:45:28.287Z,0
2018-07-08T02:46:08.709Z,0
2018-07-08T02:46:49.250Z,0
2018-07-08T02:47:29.565Z,0
2018-07-08T02:48:09.951Z,0
2018-07-08T02:48:50.378Z,0
2018-07-08T02:49:30.733Z,4
2018-07-08T02:50:11.182Z,4
2018-07-08T02:50:51.612Z,4
2018-07-08T02:51:31.999Z,0
2018-07-08T02:52:12.525Z,0
2018-07-08T02:52:52.886Z,0
2018-07-08T02:53:33.228Z,4
2018-07-08T02:54:13.660Z,4
2018-07-08T02:54:54.068Z,4
2018-07-08T02:55:34.466Z,0
2018-07-08T02:56:14.873Z,0
2018-07-08T02:56:55.311Z,4
2018-07-08T02:57:35.800Z,4
2018-07-08T02:58:16.152Z,0
2018-07-08T02:58:56.567Z,4
2018-07-08T02:59:37.043Z,4
2018-07-08T03:00:17.429Z,4
2018-07-08T03:00:57.882Z,4
2018-07-08T03:01:38.272Z,8
2018-07-08T03:02:18.642Z,4
2018-07-08T03:02:59.057Z,8
2018-07-08T03:03:39.479Z,4
2018-07-08T03:04:19.892Z,8
2018-07-08T03:05:00.305Z,8
2018-07-08T03:05:40.674Z,8
2018-07-08T03:06:21.131Z,12
2018-07-08T03:07:01.493Z,12
2018-07-08T03:07:41.920Z,12
2018-07-08T03:08:22.376Z,12
2018-07-08T03:09:02.795Z,12
2018-07-08T03:09:43.165Z,12
2018-07-08T03:10:23.566Z,16
2018-07-08T03:11:04.040Z,16
2018-07-08T03:11:44.480Z,16
2018-07-08T03:12:24.847Z,20
2018-07-08T03:13:05.358Z,20
2018-07-08T03:13:45.618Z,24
2018-07-08T03:14:26.120Z,24
2018-07-08T03:15:06.480Z,24
2018-07-08T03:15:46.911Z,28
2018-07-08T03:16:27.359Z,28
2018-07-08T03:17:07.883Z,32
2018-07-08T03:17:48.198Z,32
2018-07-08T03:18:28.712Z,36
2018-07-08T03:19:09.181Z,36
2018-07-08T03:19:49.575Z,40
2018-07-08T03:20:30.015Z,40
2018-07-08T03:21:10.331Z,44
2018-07-08T03:21:50.814Z,48
2018-07-08T03:22:31.234Z,48
2018-07-08T03:23:11.768Z,52
2018-07-08T03:23:52.147Z,56
2018-07-08T03:24:32.488Z,60
2018-07-08T03:25:12.897Z,64
2018-07-08T03:25:53.308Z,68
2018-07-08T03:26:33.743Z,72
2018-07-08T03:27:14.184Z,72
2018-07-08T03:27:54.560Z,80
2018-07-08T03:28:34.984Z,84
2018-07-08T03:29:15.369Z,88
2018-07-08T03:29:55.785Z,92
2018-07-08T03:30:36.335Z,100
2018-07-08T03:31:16.602Z,104
2018-07-08T03:31:57.102Z,108
2018-07-08T03:32:37.567Z,116
2018-07-08T03:33:17.987Z,124
2018-07-08T03:33:58.368Z,124
2018-07-08T03:34:38.788Z,132
2018-07-08T03:35:19.270Z,140
2018-07-08T03:37:32.758Z,164
2018-07-08T03:38:13.450Z,172
2018-07-08T03:38:53.856Z,180
2018-07-08T03:39:34.279Z,188
2018-07-08T03:40:14.680Z,196
2018-07-08T03:40:55.135Z,208
2018-07-08T03:41:35.531Z,216
2018-07-08T03:42:16.283Z,224
2018-07-08T03:42:56.639Z,236
2018-07-08T03:43:37.009Z,240
2018-07-08T03:44:17.468Z,248
2018-07-08T03:44:57.868Z,260
2018-07-08T03:45:38.296Z,268
2018-07-08T03:46:18.620Z,280
2018-07-08T03:46:59.090Z,292
2018-07-08T03:47:39.533Z,300
2018-07-08T03:48:20.012Z,308
2018-07-08T03:49:00.428Z,320
2018-07-08T03:49:40.912Z,332
2018-07-08T03:50:21.232Z,344
2018-07-08T03:51:01.630Z,356
2018-07-08T03:51:42.113Z,364
2018-07-08T03:52:22.476Z,376
2018-07-08T03:53:02.855Z,388
2018-07-08T03:53:43.287Z,404
2018-07-08T03:54:23.780Z,416
2018-07-08T03:55:04.176Z,432
2018-07-08T03:55:44.577Z,440
2018-07-08T03:56:24.998Z,456
2018-07-08T03:57:05.446Z,468
2018-07-08T03:57:45.912Z,480
2018-07-08T03:58:26.465Z,496
2018-07-08T03:59:06.839Z,508
2018-07-08T03:59:47.259Z,520
2018-07-08T04:00:27.751Z,540
2018-07-08T04:01:08.124Z,552
2018-07-08T04:01:48.531Z,564
2018-07-08T04:02:28.950Z,580
2018-07-08T04:03:09.359Z,592
2018-07-08T04:03:49.837Z,608
2018-07-08T04:44:33.950Z,13408
2018-07-08T04:45:14.110Z,14240
2018-07-08T04:45:54.576Z,14144
2018-07-08T04:46:34.951Z,14048
2018-07-08T04:47:15.465Z,14368
2018-07-08T04:47:55.917Z,14624
2018-07-08T04:48:36.312Z,14944
2018-07-08T04:49:16.701Z,14976
2018-07-08T04:49:57.081Z,14560
2018-07-08T04:50:37.490Z,15360
2018-07-08T04:51:17.853Z,14944
2018-07-08T04:51:58.286Z,15424
2018-07-08T04:52:38.691Z,15840
2018-07-08T04:53:19.184Z,15840
2018-07-08T04:53:59.633Z,15968
2018-07-08T04:54:39.985Z,17408
2018-07-08T04:55:20.421Z,16736
2018-07-08T04:56:00.812Z,16256
2018-07-08T04:56:41.214Z,16192
2018-07-08T04:57:21.617Z,18048
2018-07-08T04:58:02.097Z,17824
2018-07-08T04:58:42.920Z,18336
2018-07-08T04:59:23.389Z,17952
2018-07-08T05:00:03.806Z,18368
2018-07-08T05:00:44.230Z,18688
2018-07-08T05:01:24.899Z,19104
2018-07-08T05:02:05.229Z,20384
2018-07-08T05:02:45.698Z,21088
2018-07-08T05:03:26.123Z,20512
2018-07-08T05:04:06.874Z,19328
2018-07-08T05:04:47.526Z,20448
2018-07-08T05:05:28.266Z,20224
2018-07-08T05:06:09.040Z,20032
2018-07-08T05:06:49.386Z,20992
2018-07-08T05:07:30.001Z,20800
2018-07-08T05:08:10.665Z,20960
2018-07-08T05:08:51.244Z,21088
2018-07-08T05:09:32.109Z,21728
2018-07-08T05:10:12.493Z,23296
2018-07-08T05:10:52.902Z,23712
2018-07-08T05:11:33.393Z,23904
2018-07-08T05:12:13.778Z,24352
2018-07-08T05:12:54.343Z,23392
2018-07-08T05:13:35.186Z,22688
2018-07-08T05:14:15.876Z,23616
2018-07-08T05:14:56.364Z,24032
2018-07-08T05:15:37.197Z,24384
2018-07-08T05:16:17.784Z,25216
2018-07-08T05:16:58.195Z,25280
2018-07-08T05:17:38.622Z,25696
2018-07-08T05:18:19.558Z,25184
2018-07-08T05:18:59.930Z,25248
2018-07-08T05:19:40.292Z,25568
2018-07-08T05:20:20.888Z,27040
2018-07-08T05:21:01.217Z,27744
2018-07-08T05:21:41.635Z,28288
2018-07-08T05:22:22.010Z,27488
2018-07-08T05:23:02.355Z,27360
2018-07-08T05:23:42.888Z,27264
2018-07-08T05:24:23.652Z,27968
2018-07-08T05:25:03.695Z,28608
2018-07-08T05:25:44.257Z,29888
2018-07-08T05:26:24.676Z,28864
2018-07-08T05:27:05.113Z,28704
2018-07-08T05:27:45.733Z,28704
2018-07-08T05:28:26.106Z,29472
2018-07-08T05:29:06.903Z,29184
2018-07-08T05:29:48.328Z,30368
2018-07-08T05:30:29.169Z,31232
2018-07-08T05:31:09.242Z,31328
2018-07-08T05:31:49.657Z,31424
2018-07-08T05:32:30.421Z,31520
2018-07-08T05:33:10.823Z,31328
2018-07-08T05:33:51.286Z,31392
2018-07-08T05:34:31.753Z,31232
2018-07-08T05:35:12.141Z,32032
2018-07-08T05:35:52.816Z,32576
2018-07-08T05:36:33.105Z,32320
2018-07-08T05:37:13.563Z,33568
2018-07-08T05:37:54.022Z,33472
2018-07-08T05:38:34.553Z,33568
2018-07-08T05:39:15.366Z,33696
2018-07-08T05:39:55.801Z,33504
2018-07-08T05:40:36.488Z,33664
2018-07-08T05:41:17.053Z,34784
2018-07-08T05:43:30.507Z,38112
2018-07-08T05:44:12.516Z,36800
2018-07-08T05:44:53.001Z,35328
2018-07-08T05:45:33.405Z,36640
2018-07-08T05:46:13.827Z,36576
2018-07-08T05:46:54.294Z,37728
2018-07-08T05:47:35.196Z,37568
2018-07-08T05:50:03.491Z,38208
2018-07-08T05:50:44.826Z,38432
2018-07-08T05:51:25.176Z,38880
2018-07-08T05:52:05.591Z,39424
2018-07-08T05:52:45.997Z,38560
2018-07-08T05:53:26.459Z,38272
2018-07-08T05:54:06.876Z,39488
2018-07-08T05:54:47.314Z,40736
2018-07-08T05:55:27.763Z,41472
2018-07-08T05:56:08.145Z,41088
2018-07-08T05:56:48.562Z,41696
2018-07-08T05:57:29.085Z,41216
2018-07-08T05:58:09.475Z,41632
2018-07-08T05:58:50.667Z,42560
2018-07-08T05:59:31.118Z,42656
2018-07-08T06:00:11.504Z,43456
2018-07-08T06:00:51.919Z,42816
2018-07-08T06:01:32.342Z,42400
2018-07-08T06:02:12.980Z,42400
2018-07-08T06:02:53.444Z,41632
2018-07-08T06:03:33.898Z,42816
2018-07-08T06:04:14.319Z,43232
2018-07-08T06:04:54.789Z,45024
2018-07-08T06:05:35.492Z,43872
2018-07-08T06:06:16.036Z,44672
2018-07-08T06:06:56.372Z,45376
2018-07-08T06:07:36.740Z,46144
2018-07-08T06:08:17.198Z,46304
2018-07-08T06:08:57.580Z,47648
2018-07-08T06:09:38.057Z,46848
2018-07-08T06:10:19.715Z,45760
2018-07-08T06:11:00.083Z,46720
2018-07-08T06:11:40.542Z,45984
2018-07-08T06:12:20.865Z,46432
2018-07-08T06:13:01.281Z,46720
2018-07-08T06:13:41.995Z,47328
2018-07-08T06:14:22.436Z,46176
2018-07-08T06:15:02.877Z,46624
2018-07-08T06:15:43.444Z,48032
2018-07-08T06:17:42.339Z,48928
2018-07-08T06:18:21.520Z,48768
2018-07-08T06:19:01.863Z,49920
2018-07-08T06:19:42.270Z,50112
2018-07-08T06:20:22.695Z,51328
2018-07-08T06:21:03.207Z,54976
2018-07-08T06:21:43.644Z,55616
2018-07-08T06:22:24.026Z,58400
2018-07-08T06:23:04.486Z,56704
2018-07-08T06:23:44.885Z,53088
2018-07-08T06:26:17.720Z,47776
2018-07-08T06:26:58.157Z,44480
2018-07-08T06:27:38.517Z,43072
2018-07-08T06:28:19.038Z,45216
2018-07-08T06:28:59.380Z,53056
2018-07-08T06:29:40.410Z,55424
2018-07-08T06:30:20.784Z,51424
2018-07-08T06:31:01.184Z,46112
2018-07-08T06:31:41.739Z,40480
2018-07-08T06:32:22.141Z,38368
2018-07-08T06:33:02.574Z,35584
2018-07-08T06:33:43.021Z,34560
2018-07-08T06:34:23.429Z,35456
2018-07-08T06:35:03.855Z,33888
2018-07-08T06:35:44.308Z,33344
2018-07-08T06:36:24.737Z,32704
2018-07-08T06:37:05.071Z,32448
2018-07-08T06:37:45.550Z,32384
2018-07-08T06:38:25.954Z,33568
2018-07-08T06:39:06.376Z,35232
2018-07-08T06:39:46.838Z,37632
2018-07-08T06:40:27.218Z,39040
2018-07-08T06:41:07.625Z,38752
2018-07-08T06:41:48.061Z,40288
2018-07-08T06:42:28.724Z,37984
2018-07-08T06:43:09.143Z,33248
2018-07-08T06:43:50.353Z,28064
2018-07-08T06:44:30.757Z,27104
2018-07-08T06:45:11.443Z,25920
2018-07-08T06:45:51.854Z,26112
2018-07-08T06:46:32.315Z,25440
2018-07-08T06:47:12.913Z,26528
2018-07-08T06:47:54.100Z,28352
2018-07-08T06:48:35.206Z,28800
2018-07-08T06:49:15.623Z,29184
2018-07-08T06:49:56.331Z,30208
2018-07-08T06:50:36.588Z,29504
2018-07-08T06:51:17.071Z,29248
2018-07-08T06:51:57.446Z,29664
2018-07-08T06:52:37.857Z,29056
2018-07-08T06:53:18.311Z,27616
2018-07-08T06:53:58.767Z,26848
2018-07-08T06:54:39.137Z,25664
2018-07-08T06:55:20.028Z,25152
2018-07-08T06:56:00.517Z,24736
2018-07-08T06:56:40.866Z,24992
2018-07-08T06:57:21.295Z,25696
2018-07-08T06:58:01.914Z,26336
2018-07-08T06:58:42.823Z,27872
2018-07-08T06:59:23.257Z,31392
2018-07-08T07:00:03.735Z,36832
2018-07-08T07:00:44.090Z,41184
2018-07-08T07:01:24.622Z,43488
2018-07-08T07:02:05.063Z,43776
2018-07-08T07:02:45.629Z,43968
2018-07-08T07:03:26.042Z,46016
2018-07-08T07:04:06.434Z,48896
2018-07-08T07:04:47.218Z,48640
2018-07-08T07:05:27.605Z,47616
2018-07-08T07:06:07.978Z,47840
2018-07-08T07:06:48.554Z,46400
2018-07-08T07:07:28.837Z,48640
2018-07-08T07:08:09.312Z,49184
2018-07-08T07:08:50.329Z,47680
2018-07-08T07:09:30.979Z,46496
2018-07-08T07:10:11.242Z,46272
2018-07-08T07:10:51.728Z,46848
2018-07-08T07:11:32.213Z,48576
2018-07-08T07:12:12.736Z,49120
2018-07-08T07:12:53.128Z,51520
2018-07-08T07:13:33.576Z,49376
2018-07-08T07:14:14.021Z,47104
2018-07-08T07:14:54.530Z,47328
2018-07-08T07:15:34.949Z,48928
2018-07-08T07:16:15.354Z,49984
2018-07-08T07:16:56.310Z,51616
2018-07-08T07:17:36.964Z,53280
2018-07-08T07:18:17.466Z,48800
2018-07-08T07:18:57.866Z,34144
2018-07-08T07:19:38.238Z,21376
2018-07-08T07:20:18.641Z,15088
2018-07-08T07:20:59.116Z,13916
2018-07-08T07:21:39.524Z,12976
2018-07-08T07:22:19.879Z,12360
2018-07-08T07:23:00.338Z,11784
2018-07-08T07:23:40.752Z,11384
2018-07-08T07:24:21.174Z,10636
2018-07-08T07:25:01.595Z,9980
2018-07-08T07:25:42.033Z,9420
2018-07-08T07:26:22.475Z,8852
2018-07-08T07:27:02.927Z,8500
2018-07-08T07:27:43.362Z,8308
2018-07-08T07:28:23.801Z,8092
2018-07-08T07:29:04.237Z,7948
2018-07-08T07:29:45.189Z,7896
2018-07-08T07:30:25.686Z,7788
2018-07-08T07:31:06.300Z,7512
2018-07-08T07:31:46.965Z,7164
2018-07-08T07:34:59.592Z,6176
2018-07-08T07:35:40.110Z,6052
2018-07-08T07:36:20.606Z,5952
2018-07-08T07:37:01.083Z,5940
2018-07-08T07:37:41.539Z,5868
2018-07-08T07:38:22.591Z,5812
2018-07-08T07:39:03.458Z,5740
2018-07-08T07:39:43.992Z,5476
2018-07-08T07:40:24.881Z,4996
2018-07-08T07:41:05.333Z,4556
2018-07-08T07:41:45.782Z,4420
2018-07-08T07:42:26.190Z,4364
2018-07-08T07:43:06.621Z,4296
2018-07-08T07:43:47.024Z,4232
2018-07-08T07:44:27.460Z,4132
2018-07-08T07:45:07.833Z,4060
2018-07-08T07:45:48.454Z,3980
2018-07-08T07:46:29.007Z,3952
2018-07-08T07:47:10.635Z,3884
2018-07-08T07:47:51.050Z,3840
2018-07-08T07:48:31.477Z,3772
2018-07-08T07:49:11.916Z,3744
2018-07-08T07:49:52.780Z,3708
2018-07-08T07:50:34.022Z,3648
2018-07-08T07:51:14.613Z,3612
2018-07-08T07:51:54.933Z,3580
2018-07-08T07:52:35.362Z,3540
2018-07-08T07:53:15.772Z,3496
2018-07-08T07:53:56.115Z,3464
2018-07-08T07:54:36.533Z,3416
2018-07-08T07:55:16.964Z,3384
2018-07-08T07:55:57.375Z,3332
2018-07-08T07:56:37.804Z,3292
2018-07-08T07:57:18.299Z,3260
2018-07-08T07:57:58.669Z,3228
2018-07-08T07:58:39.001Z,3204
2018-07-08T07:59:19.504Z,3200
2018-07-08T07:59:59.870Z,3188
2018-07-08T08:00:40.241Z,3148
2018-07-08T08:01:20.760Z,3120
2018-07-08T08:02:01.190Z,3080
2018-07-08T08:02:41.703Z,3076
2018-07-08T08:03:22.409Z,3072
2018-07-08T08:04:02.889Z,3048
2018-07-08T08:04:43.268Z,3016
2018-07-08T08:07:01.649Z,2932
2018-07-08T08:07:41.313Z,2904
2018-07-08T08:08:21.731Z,2884
2018-07-08T08:09:02.099Z,2848
2018-07-08T08:09:43.075Z,2828
2018-07-08T08:10:23.549Z,2808
2018-07-08T08:11:03.912Z,2792
2018-07-08T08:11:44.328Z,2768
2018-07-08T08:12:24.760Z,2756
2018-07-08T08:14:56.429Z,2672
2018-07-08T08:15:36.945Z,2660
2018-07-08T08:16:17.933Z,2652
2018-07-08T08:16:58.322Z,2648
2018-07-08T08:17:39.084Z,2632
2018-07-08T08:18:19.530Z,2612
2018-07-08T08:18:59.930Z,2588
2018-07-08T08:19:40.397Z,2580
2018-07-08T08:20:20.821Z,2572
2018-07-08T08:21:01.349Z,2556
2018-07-08T08:21:41.795Z,2548
2018-07-08T08:22:22.063Z,2536
2018-07-08T08:23:02.608Z,2532
2018-07-08T08:23:42.984Z,2524
2018-07-08T08:24:23.454Z,2512
2018-07-08T08:25:03.840Z,2496
2018-07-08T08:25:44.236Z,2480
2018-07-08T08:26:24.847Z,2476
2018-07-08T08:27:05.689Z,2468
2018-07-08T08:27:46.134Z,2460
2018-07-08T08:28:26.525Z,2448
2018-07-08T08:29:06.952Z,2432
2018-07-08T08:29:47.491Z,2420
2018-07-08T08:30:27.776Z,2408
2018-07-08T08:31:08.292Z,2392
2018-07-08T08:31:48.695Z,2384
2018-07-08T08:32:29.040Z,2372
2018-07-08T08:33:09.514Z,2364
2018-07-08T08:33:49.927Z,2352
2018-07-08T08:34:30.329Z,2336
2018-07-08T08:35:10.753Z,2320
2018-07-08T08:35:51.138Z,2308
2018-07-08T08:36:31.560Z,2296
2018-07-08T08:37:12.000Z,2292
2018-07-08T08:37:52.372Z,2284
2018-07-08T08:38:32.791Z,2280
2018-07-08T08:39:13.183Z,2276
2018-07-08T08:39:53.626Z,2260
2018-07-08T08:40:34.085Z,2252
2018-07-08T08:41:14.653Z,2244
2018-07-08T08:41:54.950Z,2232
2018-07-08T08:42:35.498Z,2232
2018-07-08T08:43:15.975Z,2224
2018-07-08T08:43:56.327Z,2216
2018-07-08T08:44:36.712Z,2216
2018-07-08T08:45:17.181Z,2212
2018-07-08T08:45:57.970Z,2208
2018-07-08T08:46:38.487Z,2204
2018-07-08T08:47:18.916Z,2200
2018-07-08T08:47:59.359Z,2192
2018-07-08T08:48:39.777Z,2184
2018-07-08T08:49:20.164Z,2184
2018-07-08T08:50:00.596Z,2180
2018-07-08T08:50:41.004Z,2180
2018-07-08T08:51:21.576Z,2176
2018-07-08T08:52:01.925Z,2172
2018-07-08T08:52:42.345Z,2172
2018-07-08T08:53:22.953Z,2164
2018-07-08T08:54:03.225Z,2160
2018-07-08T08:54:43.750Z,2160
2018-07-08T08:55:24.233Z,2160
2018-07-08T08:56:05.054Z,2152
2018-07-08T08:56:45.561Z,2152
2018-07-08T08:57:26.329Z,2152
2018-07-08T08:58:07.087Z,2148
2018-07-08T08:58:47.195Z,2144
2018-07-08T08:59:27.606Z,2136
2018-07-08T09:00:08.059Z,2132
2018-07-08T09:00:48.490Z,2124
2018-07-08T09:01:29.004Z,2124
2018-07-08T09:02:09.352Z,2120
2018-07-08T09:02:49.817Z,2124
2018-07-08T09:03:30.211Z,2128
2018-07-08T09:04:10.608Z,2128
2018-07-08T09:04:51.030Z,2124
2018-07-08T09:05:31.474Z,2132
2018-07-08T09:06:11.860Z,2132
2018-07-08T09:06:52.236Z,2124
2018-07-08T09:07:32.625Z,2116
2018-07-08T09:08:13.080Z,2108
2018-07-08T09:08:53.538Z,2104
2018-07-08T09:09:33.946Z,2100
2018-07-08T09:10:15.185Z,2088
2018-07-08T09:10:55.768Z,2084
2018-07-08T09:11:36.264Z,2080
2018-07-08T09:12:16.670Z,2068
2018-07-08T09:12:57.060Z,2052
2018-07-08T09:13:37.463Z,2052
2018-07-08T09:14:17.954Z,2048
2018-07-08T09:14:58.782Z,2048
2018-07-08T09:15:39.201Z,2052
2018-07-08T09:16:19.596Z,2052
2018-07-08T09:17:00.231Z,2060
2018-07-08T09:17:40.919Z,2052
2018-07-08T09:18:21.380Z,2044
2018-07-08T09:19:01.805Z,2044
2018-07-08T09:19:42.237Z,2048
2018-07-08T09:20:22.956Z,2044
2018-07-08T09:21:03.422Z,2024
2018-07-08T09:21:43.897Z,2012
2018-07-08T09:22:24.235Z,1996
2018-07-08T09:23:04.683Z,1988
2018-07-08T09:23:45.213Z,1988
2018-07-08T09:24:26.255Z,1992
2018-07-08T09:25:06.724Z,1992
2018-07-08T09:25:47.164Z,1984
2018-07-08T09:26:27.784Z,1980
2018-07-08T09:27:08.225Z,1976
2018-07-08T09:27:48.772Z,1980
2018-07-08T09:28:29.234Z,1976
2018-07-08T09:29:09.712Z,1976
2018-07-08T09:29:50.245Z,1976
2018-07-08T09:30:30.686Z,1976
2018-07-08T09:31:11.632Z,1972
2018-07-08T09:31:51.763Z,1972
2018-07-08T09:34:26.758Z,1940
2018-07-08T09:35:06.958Z,1936
2018-07-08T09:35:47.480Z,1928
2018-07-08T09:36:27.856Z,1928
2018-07-08T09:37:08.272Z,1928
2018-07-08T09:37:49.858Z,1920
2018-07-08T09:38:29.944Z,1920
2018-07-08T09:39:10.449Z,1912
2018-07-08T09:39:50.788Z,1908
2018-07-08T09:40:31.296Z,1912
2018-07-08T09:41:13.436Z,1912
2018-07-08T09:41:53.877Z,1908
2018-07-08T09:42:34.424Z,1904
2018-07-08T09:43:14.785Z,1892
2018-07-08T09:43:55.203Z,1888
2018-07-08T09:44:35.708Z,1876
2018-07-08T09:45:16.274Z,1876
2018-07-08T09:45:56.676Z,1872
2018-07-08T09:46:37.023Z,1872
2018-07-08T09:47:17.470Z,1868
2018-07-08T09:47:58.164Z,1868
2018-07-08T09:48:39.222Z,1860
2018-07-08T09:49:19.759Z,1856
2018-07-08T09:50:00.292Z,1856
2018-07-08T09:50:40.844Z,1848
2018-07-08T09:51:21.346Z,1844
2018-07-08T09:52:01.747Z,1836
2018-07-08T09:52:42.339Z,1832
2018-07-08T09:53:22.774Z,1828
2018-07-08T09:54:03.142Z,1816
2018-07-08T09:54:43.581Z,1816
2018-07-08T09:55:24.057Z,1812
2018-07-08T09:59:57.626Z,1792
2018-07-08T10:00:38.144Z,1788
2018-07-08T10:01:18.712Z,1784
2018-07-08T10:01:59.134Z,1780
2018-07-08T10:02:40.074Z,1768
2018-07-08T10:03:20.384Z,1764
2018-07-08T10:04:00.755Z,1768
2018-07-08T10:04:41.256Z,1764
2018-07-08T10:05:21.614Z,1760
2018-07-08T10:47:52.223Z,1616
2018-07-08T10:48:32.653Z,1624
2018-07-08T10:49:13.089Z,1620
2018-07-08T10:49:53.665Z,1616
2018-07-08T10:50:34.158Z,1612
2018-07-08T10:51:14.553Z,1608
2018-07-08T10:51:55.026Z,1604
2018-07-08T10:52:35.428Z,1596
2018-07-08T10:53:15.897Z,1592
2018-07-08T10:53:56.319Z,1592
2018-07-08T10:54:36.807Z,1596
2018-07-08T10:55:17.225Z,1592
2018-07-08T10:55:57.820Z,1592
2018-07-08T10:57:59.796Z,1588
2018-07-08T10:58:38.054Z,1580
2018-07-08T10:59:18.606Z,1580
2018-07-08T10:59:58.877Z,1584
2018-07-08T11:00:39.346Z,1588